KMYF/MYF METAR and TAF weather

Enter ICAO airport designator
Station Type Date Time Source
KMYF METAR 2019/10/15 03:53 UTC NOAA

KMYF 150353Z 34006KT 10SM CLR 18/14 A2996 RMK AO2 SLP140 T01780139


Station Type Date Time Source
KMYF Decoded METAR 2019/10/15 03:53 UTC NOAA

SAN DIEGO MONTGOMERY FIELD, CA, United States (KMYF) 32-49N 117-08W 136M
Oct 14, 2019 - 11:53 PM EDT / 2019.10.15 0353 UTC
Wind: from the NNW (340 degrees) at 7 MPH (6 KT):0
Visibility: 10 mile(s):0
Sky conditions: clear
Temperature: 64.0 F (17.8 C)
Dew Point: 57.0 F (13.9 C)
Relative Humidity: 77%
Pressure (altimeter): 29.96 in. Hg (1014 hPa)
ob: KMYF 150353Z 34006KT 10SM CLR 18/14 A2996 RMK AO2 SLP140 T01780139
cycle: 4

Station Type Date Time Source
KMYF TAF UTC NOAA

Error!

Example: see airport list